sensor_id;sensor_type;location;lat;lon;timestamp;P1;durP1;ratioP1;P2;durP2;ratioP2
50267;SDS011;36153;50.960;6.220;2023-07-24T00:01:32;4.05;;;2.30;;
50267;SDS011;36153;50.960;6.220;2023-07-24T00:04:32;7.30;;;2.72;;
50267;SDS011;36153;50.960;6.220;2023-07-24T00:07:33;3.45;;;2.45;;
50267;SDS011;36153;50.960;6.220;2023-07-24T00:10:33;3.78;;;2.20;;
50267;SDS011;36153;50.960;6.220;2023-07-24T00:13:33;4.97;;;2.17;;
50267;SDS011;36153;50.960;6.220;2023-07-24T00:16:34;3.67;;;1.95;;
50267;SDS011;36153;50.960;6.220;2023-07-24T00:19:34;3.97;;;2.25;;
50267;SDS011;36153;50.960;6.220;2023-07-24T00:22:34;3.47;;;2.33;;
50267;SDS011;36153;50.960;6.220;2023-07-24T00:25:35;6.13;;;2.45;;
50267;SDS011;36153;50.960;6.220;2023-07-24T00:28:35;5.30;;;2.28;;
50267;SDS011;36153;50.960;6.220;2023-07-24T00:31:35;4.90;;;2.63;;
50267;SDS011;36153;50.960;6.220;2023-07-24T00:34:36;4.90;;;3.00;;
50267;SDS011;36153;50.960;6.220;2023-07-24T00:37:36;3.50;;;2.83;;
50267;SDS011;36153;50.960;6.220;2023-07-24T00:40:37;3.88;;;2.08;;
50267;SDS011;36153;50.960;6.220;2023-07-24T00:43:37;4.68;;;2.45;;
50267;SDS011;36153;50.960;6.220;2023-07-24T00:46:37;4.82;;;2.30;;
50267;SDS011;36153;50.960;6.220;2023-07-24T00:49:38;5.90;;;2.58;;
50267;SDS011;36153;50.960;6.220;2023-07-24T00:52:39;5.75;;;2.85;;
50267;SDS011;36153;50.960;6.220;2023-07-24T00:55:40;3.20;;;2.20;;
50267;SDS011;36153;50.960;6.220;2023-07-24T00:58:42;4.70;;;2.17;;
50267;SDS011;36153;50.960;6.220;2023-07-24T01:01:42;4.32;;;2.47;;
50267;SDS011;36153;50.960;6.220;2023-07-24T01:04:44;5.22;;;2.33;;
50267;SDS011;36153;50.960;6.220;2023-07-24T01:07:44;6.45;;;2.70;;
50267;SDS011;36153;50.960;6.220;2023-07-24T01:10:45;4.53;;;2.38;;
50267;SDS011;36153;50.960;6.220;2023-07-24T01:13:48;4.30;;;2.33;;
50267;SDS011;36153;50.960;6.220;2023-07-24T01:16:57;4.47;;;2.22;;
50267;SDS011;36153;50.960;6.220;2023-07-24T01:20:01;3.75;;;2.40;;
50267;SDS011;36153;50.960;6.220;2023-07-24T01:26:48;4.35;;;2.25;;
50267;SDS011;36153;50.960;6.220;2023-07-24T01:29:50;5.57;;;2.45;;
50267;SDS011;36153;50.960;6.220;2023-07-24T01:32:50;4.97;;;2.08;;
50267;SDS011;36153;50.960;6.220;2023-07-24T01:35:52;4.32;;;2.40;;
50267;SDS011;36153;50.960;6.220;2023-07-24T01:38:54;4.88;;;2.13;;
50267;SDS011;36153;50.960;6.220;2023-07-24T01:41:56;7.32;;;2.38;;
50267;SDS011;36153;50.960;6.220;2023-07-24T01:44:56;6.28;;;2.80;;
50267;SDS011;36153;50.960;6.220;2023-07-24T01:47:56;5.13;;;2.22;;
50267;SDS011;36153;50.960;6.220;2023-07-24T01:50:57;7.28;;;2.85;;
50267;SDS011;36153;50.960;6.220;2023-07-24T01:53:57;8.10;;;2.65;;
50267;SDS011;36153;50.960;6.220;2023-07-24T01:56:57;7.50;;;2.35;;
50267;SDS011;36153;50.960;6.220;2023-07-24T01:59:57;4.10;;;2.80;;
50267;SDS011;36153;50.960;6.220;2023-07-24T02:02:58;4.80;;;2.03;;
50267;SDS011;36153;50.960;6.220;2023-07-24T02:05:58;5.28;;;2.67;;
50267;SDS011;36153;50.960;6.220;2023-07-24T02:08:58;4.43;;;3.00;;
50267;SDS011;36153;50.960;6.220;2023-07-24T02:12:02;6.63;;;2.60;;
50267;SDS011;36153;50.960;6.220;2023-07-24T02:15:02;4.72;;;2.42;;
50267;SDS011;36153;50.960;6.220;2023-07-24T02:18:03;6.60;;;2.45;;
50267;SDS011;36153;50.960;6.220;2023-07-24T02:21:03;6.45;;;2.80;;
50267;SDS011;36153;50.960;6.220;2023-07-24T02:24:03;8.85;;;3.13;;
50267;SDS011;36153;50.960;6.220;2023-07-24T02:27:05;6.22;;;3.17;;
50267;SDS011;36153;50.960;6.220;2023-07-24T02:30:05;7.78;;;2.75;;
50267;SDS011;36153;50.960;6.220;2023-07-24T02:33:06;8.15;;;2.47;;
50267;SDS011;36153;50.960;6.220;2023-07-24T02:36:06;4.65;;;2.53;;
50267;SDS011;36153;50.960;6.220;2023-07-24T02:39:07;5.22;;;2.75;;
50267;SDS011;36153;50.960;6.220;2023-07-24T02:42:08;4.15;;;2.60;;
50267;SDS011;36153;50.960;6.220;2023-07-24T02:45:08;4.97;;;2.83;;
50267;SDS011;36153;50.960;6.220;2023-07-24T02:48:10;5.45;;;2.55;;
50267;SDS011;36153;50.960;6.220;2023-07-24T02:51:11;5.65;;;2.20;;
50267;SDS011;36153;50.960;6.220;2023-07-24T02:54:11;5.68;;;2.58;;
50267;SDS011;36153;50.960;6.220;2023-07-24T02:57:11;5.32;;;2.35;;
50267;SDS011;36153;50.960;6.220;2023-07-24T03:00:12;6.18;;;2.72;;
50267;SDS011;36153;50.960;6.220;2023-07-24T03:03:12;3.72;;;2.50;;
50267;SDS011;36153;50.960;6.220;2023-07-24T03:06:13;6.10;;;2.58;;
50267;SDS011;36153;50.960;6.220;2023-07-24T03:09:13;5.38;;;2.67;;
50267;SDS011;36153;50.960;6.220;2023-07-24T03:12:13;4.32;;;2.50;;
50267;SDS011;36153;50.960;6.220;2023-07-24T03:15:14;6.05;;;2.33;;
50267;SDS011;36153;50.960;6.220;2023-07-24T03:18:14;4.97;;;2.50;;
50267;SDS011;36153;50.960;6.220;2023-07-24T03:21:15;5.32;;;2.70;;
50267;SDS011;36153;50.960;6.220;2023-07-24T03:24:15;6.30;;;3.20;;
50267;SDS011;36153;50.960;6.220;2023-07-24T03:27:16;6.20;;;3.17;;
50267;SDS011;36153;50.960;6.220;2023-07-24T03:30:16;6.55;;;3.25;;
50267;SDS011;36153;50.960;6.220;2023-07-24T03:33:17;6.68;;;3.25;;
50267;SDS011;36153;50.960;6.220;2023-07-24T03:36:17;7.60;;;2.80;;
50267;SDS011;36153;50.960;6.220;2023-07-24T03:39:17;4.50;;;2.75;;
50267;SDS011;36153;50.960;6.220;2023-07-24T03:42:25;4.40;;;2.88;;
50267;SDS011;36153;50.960;6.220;2023-07-24T03:45:26;7.05;;;2.90;;
50267;SDS011;36153;50.960;6.220;2023-07-24T03:48:26;5.35;;;3.42;;
50267;SDS011;36153;50.960;6.220;2023-07-24T03:51:27;6.85;;;2.38;;
50267;SDS011;36153;50.960;6.220;2023-07-24T03:54:27;5.45;;;2.83;;
50267;SDS011;36153;50.960;6.220;2023-07-24T03:57:27;6.75;;;2.95;;
50267;SDS011;36153;50.960;6.220;2023-07-24T04:00:28;9.15;;;3.00;;
50267;SDS011;36153;50.960;6.220;2023-07-24T04:03:28;8.25;;;2.78;;
50267;SDS011;36153;50.960;6.220;2023-07-24T04:06:29;4.22;;;3.00;;
50267;SDS011;36153;50.960;6.220;2023-07-24T04:09:29;5.82;;;2.80;;
50267;SDS011;36153;50.960;6.220;2023-07-24T04:12:30;7.82;;;2.80;;
50267;SDS011;36153;50.960;6.220;2023-07-24T04:15:30;6.03;;;2.35;;
50267;SDS011;36153;50.960;6.220;2023-07-24T04:18:31;4.55;;;2.67;;
50267;SDS011;36153;50.960;6.220;2023-07-24T04:21:31;6.63;;;2.90;;
50267;SDS011;36153;50.960;6.220;2023-07-24T04:24:32;4.55;;;2.90;;
50267;SDS011;36153;50.960;6.220;2023-07-24T04:27:32;4.57;;;2.70;;
50267;SDS011;36153;50.960;6.220;2023-07-24T04:30:32;4.63;;;2.90;;
50267;SDS011;36153;50.960;6.220;2023-07-24T04:33:33;4.63;;;3.20;;
50267;SDS011;36153;50.960;6.220;2023-07-24T04:36:33;4.43;;;2.85;;
50267;SDS011;36153;50.960;6.220;2023-07-24T04:39:34;5.55;;;2.60;;
50267;SDS011;36153;50.960;6.220;2023-07-24T04:42:34;7.65;;;2.90;;
50267;SDS011;36153;50.960;6.220;2023-07-24T04:45:35;5.75;;;2.50;;
50267;SDS011;36153;50.960;6.220;2023-07-24T04:48:36;6.45;;;2.83;;
50267;SDS011;36153;50.960;6.220;2023-07-24T04:51:36;5.30;;;2.75;;
50267;SDS011;36153;50.960;6.220;2023-07-24T04:54:37;8.55;;;3.53;;
50267;SDS011;36153;50.960;6.220;2023-07-24T04:57:37;5.82;;;3.65;;
50267;SDS011;36153;50.960;6.220;2023-07-24T05:00:38;6.80;;;2.63;;
50267;SDS011;36153;50.960;6.220;2023-07-24T05:03:38;6.03;;;3.00;;
50267;SDS011;36153;50.960;6.220;2023-07-24T05:06:39;5.72;;;3.13;;
50267;SDS011;36153;50.960;6.220;2023-07-24T05:09:39;5.82;;;2.67;;
50267;SDS011;36153;50.960;6.220;2023-07-24T05:12:42;6.70;;;2.78;;
50267;SDS011;36153;50.960;6.220;2023-07-24T05:15:43;7.78;;;3.03;;
50267;SDS011;36153;50.960;6.220;2023-07-24T05:18:43;5.50;;;2.60;;
50267;SDS011;36153;50.960;6.220;2023-07-24T05:21:43;5.05;;;2.75;;
50267;SDS011;36153;50.960;6.220;2023-07-24T05:24:44;5.10;;;2.30;;
50267;SDS011;36153;50.960;6.220;2023-07-24T05:27:44;4.07;;;2.25;;
50267;SDS011;36153;50.960;6.220;2023-07-24T05:30:45;5.20;;;2.42;;
50267;SDS011;36153;50.960;6.220;2023-07-24T05:33:46;5.38;;;2.53;;
50267;SDS011;36153;50.960;6.220;2023-07-24T05:36:47;4.53;;;2.70;;
50267;SDS011;36153;50.960;6.220;2023-07-24T05:39:47;4.78;;;2.38;;
50267;SDS011;36153;50.960;6.220;2023-07-24T05:42:47;3.38;;;2.00;;
50267;SDS011;36153;50.960;6.220;2023-07-24T05:45:49;3.45;;;1.73;;
50267;SDS011;36153;50.960;6.220;2023-07-24T05:48:52;7.05;;;2.45;;
50267;SDS011;36153;50.960;6.220;2023-07-24T05:51:53;4.50;;;1.80;;
50267;SDS011;36153;50.960;6.220;2023-07-24T05:54:54;3.53;;;2.05;;
50267;SDS011;36153;50.960;6.220;2023-07-24T05:57:54;4.88;;;2.08;;
50267;SDS011;36153;50.960;6.220;2023-07-24T06:00:54;3.63;;;2.00;;
50267;SDS011;36153;50.960;6.220;2023-07-24T06:03:55;3.63;;;2.28;;
50267;SDS011;36153;50.960;6.220;2023-07-24T06:06:55;7.93;;;2.47;;
50267;SDS011;36153;50.960;6.220;2023-07-24T06:09:56;5.30;;;2.30;;
50267;SDS011;36153;50.960;6.220;2023-07-24T06:12:56;3.65;;;2.10;;
50267;SDS011;36153;50.960;6.220;2023-07-24T06:15:56;5.10;;;2.55;;
50267;SDS011;36153;50.960;6.220;2023-07-24T06:18:57;3.90;;;1.80;;
50267;SDS011;36153;50.960;6.220;2023-07-24T06:21:57;3.35;;;1.80;;
50267;SDS011;36153;50.960;6.220;2023-07-24T06:24:57;6.53;;;2.30;;
50267;SDS011;36153;50.960;6.220;2023-07-24T06:27:58;3.00;;;2.17;;
50267;SDS011;36153;50.960;6.220;2023-07-24T06:30:58;3.92;;;1.70;;
50267;SDS011;36153;50.960;6.220;2023-07-24T06:33:59;3.58;;;1.95;;
50267;SDS011;36153;50.960;6.220;2023-07-24T06:36:59;2.38;;;1.70;;
50267;SDS011;36153;50.960;6.220;2023-07-24T06:39:59;4.07;;;1.73;;
50267;SDS011;36153;50.960;6.220;2023-07-24T06:43:00;4.13;;;1.98;;
50267;SDS011;36153;50.960;6.220;2023-07-24T06:46:00;4.55;;;1.90;;
50267;SDS011;36153;50.960;6.220;2023-07-24T06:49:00;4.88;;;2.35;;
50267;SDS011;36153;50.960;6.220;2023-07-24T06:52:01;3.22;;;1.77;;
50267;SDS011;36153;50.960;6.220;2023-07-24T06:55:02;3.15;;;1.70;;
50267;SDS011;36153;50.960;6.220;2023-07-24T06:58:02;2.15;;;1.27;;
50267;SDS011;36153;50.960;6.220;2023-07-24T07:01:06;4.53;;;2.35;;
50267;SDS011;36153;50.960;6.220;2023-07-24T07:04:06;2.72;;;1.63;;
50267;SDS011;36153;50.960;6.220;2023-07-24T07:07:07;2.78;;;1.63;;
50267;SDS011;36153;50.960;6.220;2023-07-24T07:10:07;3.28;;;1.80;;
50267;SDS011;36153;50.960;6.220;2023-07-24T07:13:08;3.55;;;1.85;;
50267;SDS011;36153;50.960;6.220;2023-07-24T07:16:08;3.00;;;1.98;;
50267;SDS011;36153;50.960;6.220;2023-07-24T07:19:09;3.40;;;2.17;;
50267;SDS011;36153;50.960;6.220;2023-07-24T07:22:09;4.28;;;2.10;;
50267;SDS011;36153;50.960;6.220;2023-07-24T07:25:09;3.15;;;1.70;;
50267;SDS011;36153;50.960;6.220;2023-07-24T07:28:10;2.58;;;1.92;;
50267;SDS011;36153;50.960;6.220;2023-07-24T07:31:13;3.33;;;1.83;;
50267;SDS011;36153;50.960;6.220;2023-07-24T07:34:14;2.97;;;1.55;;
50267;SDS011;36153;50.960;6.220;2023-07-24T07:37:14;3.70;;;2.22;;
50267;SDS011;36153;50.960;6.220;2023-07-24T07:40:14;4.53;;;2.10;;
50267;SDS011;36153;50.960;6.220;2023-07-24T07:43:15;16.48;;;10.50;;
50267;SDS011;36153;50.960;6.220;2023-07-24T07:46:15;3.85;;;2.35;;
50267;SDS011;36153;50.960;6.220;2023-07-24T07:49:15;4.60;;;2.78;;
50267;SDS011;36153;50.960;6.220;2023-07-24T07:52:16;5.43;;;2.60;;
50267;SDS011;36153;50.960;6.220;2023-07-24T07:55:18;4.63;;;2.80;;
50267;SDS011;36153;50.960;6.220;2023-07-24T07:58:19;3.90;;;2.28;;
50267;SDS011;36153;50.960;6.220;2023-07-24T08:01:19;5.07;;;2.22;;
50267;SDS011;36153;50.960;6.220;2023-07-24T08:04:19;4.63;;;2.38;;
50267;SDS011;36153;50.960;6.220;2023-07-24T08:07:20;6.28;;;4.10;;
50267;SDS011;36153;50.960;6.220;2023-07-24T08:10:20;5.70;;;2.65;;
50267;SDS011;36153;50.960;6.220;2023-07-24T08:13:20;5.03;;;3.22;;
50267;SDS011;36153;50.960;6.220;2023-07-24T08:16:21;4.15;;;2.63;;
50267;SDS011;36153;50.960;6.220;2023-07-24T08:19:21;3.65;;;2.83;;
50267;SDS011;36153;50.960;6.220;2023-07-24T08:22:22;4.32;;;1.98;;
50267;SDS011;36153;50.960;6.220;2023-07-24T08:25:23;3.28;;;2.30;;
50267;SDS011;36153;50.960;6.220;2023-07-24T08:28:23;4.15;;;1.80;;
50267;SDS011;36153;50.960;6.220;2023-07-24T08:31:23;3.75;;;1.80;;
50267;SDS011;36153;50.960;6.220;2023-07-24T08:34:24;2.92;;;1.58;;
50267;SDS011;36153;50.960;6.220;2023-07-24T08:37:24;2.67;;;2.30;;
50267;SDS011;36153;50.960;6.220;2023-07-24T08:40:25;7.68;;;1.63;;
50267;SDS011;36153;50.960;6.220;2023-07-24T08:43:25;3.00;;;1.40;;
50267;SDS011;36153;50.960;6.220;2023-07-24T08:46:27;3.00;;;1.80;;
50267;SDS011;36153;50.960;6.220;2023-07-24T08:49:29;2.67;;;1.65;;
50267;SDS011;36153;50.960;6.220;2023-07-24T08:52:30;3.25;;;1.50;;
50267;SDS011;36153;50.960;6.220;2023-07-24T08:55:31;3.03;;;2.10;;
50267;SDS011;36153;50.960;6.220;2023-07-24T08:58:32;4.10;;;2.15;;
50267;SDS011;36153;50.960;6.220;2023-07-24T09:01:33;2.88;;;1.23;;
50267;SDS011;36153;50.960;6.220;2023-07-24T09:04:33;4.60;;;1.50;;
50267;SDS011;36153;50.960;6.220;2023-07-24T09:07:33;2.33;;;1.63;;
50267;SDS011;36153;50.960;6.220;2023-07-24T09:10:34;4.05;;;2.25;;
50267;SDS011;36153;50.960;6.220;2023-07-24T09:13:38;2.83;;;1.83;;
50267;SDS011;36153;50.960;6.220;2023-07-24T09:16:41;2.90;;;1.90;;
50267;SDS011;36153;50.960;6.220;2023-07-24T09:19:42;2.33;;;1.50;;
50267;SDS011;36153;50.960;6.220;2023-07-24T09:22:53;2.78;;;1.70;;
50267;SDS011;36153;50.960;6.220;2023-07-24T09:25:54;3.40;;;1.50;;
50267;SDS011;36153;50.960;6.220;2023-07-24T09:28:54;1.85;;;1.48;;
50267;SDS011;36153;50.960;6.220;2023-07-24T09:31:54;1.70;;;1.10;;
50267;SDS011;36153;50.960;6.220;2023-07-24T09:34:55;2.35;;;1.25;;
50267;SDS011;36153;50.960;6.220;2023-07-24T09:38:06;2.85;;;1.40;;
50267;SDS011;36153;50.960;6.220;2023-07-24T09:41:09;3.30;;;1.73;;
50267;SDS011;36153;50.960;6.220;2023-07-24T09:44:11;2.28;;;1.42;;
50267;SDS011;36153;50.960;6.220;2023-07-24T09:47:12;2.20;;;1.17;;
50267;SDS011;36153;50.960;6.220;2023-07-24T09:50:13;2.22;;;1.45;;
50267;SDS011;36153;50.960;6.220;2023-07-24T09:53:14;2.63;;;1.52;;
50267;SDS011;36153;50.960;6.220;2023-07-24T09:56:19;2.63;;;1.60;;
50267;SDS011;36153;50.960;6.220;2023-07-24T09:59:21;1.92;;;1.27;;
50267;SDS011;36153;50.960;6.220;2023-07-24T10:02:23;2.88;;;1.70;;
50267;SDS011;36153;50.960;6.220;2023-07-24T10:05:24;3.80;;;1.60;;
50267;SDS011;36153;50.960;6.220;2023-07-24T10:08:24;2.22;;;1.33;;
50267;SDS011;36153;50.960;6.220;2023-07-24T10:11:26;3.05;;;1.75;;
50267;SDS011;36153;50.960;6.220;2023-07-24T10:14:27;2.10;;;1.55;;
50267;SDS011;36153;50.960;6.220;2023-07-24T10:17:39;3.15;;;1.67;;
50267;SDS011;36153;50.960;6.220;2023-07-24T10:20:41;3.45;;;1.48;;
50267;SDS011;36153;50.960;6.220;2023-07-24T10:23:42;3.50;;;2.00;;
50267;SDS011;36153;50.960;6.220;2023-07-24T10:26:44;2.42;;;1.88;;
50267;SDS011;36153;50.960;6.220;2023-07-24T10:29:44;3.83;;;1.80;;
50267;SDS011;36153;50.960;6.220;2023-07-24T10:32:47;2.88;;;1.88;;
50267;SDS011;36153;50.960;6.220;2023-07-24T10:35:52;2.50;;;1.75;;
50267;SDS011;36153;50.960;6.220;2023-07-24T10:38:54;4.75;;;2.17;;
50267;SDS011;36153;50.960;6.220;2023-07-24T10:42:04;3.30;;;2.17;;
50267;SDS011;36153;50.960;6.220;2023-07-24T10:45:06;2.50;;;1.92;;
50267;SDS011;36153;50.960;6.220;2023-07-24T10:48:07;3.85;;;1.98;;
50267;SDS011;36153;50.960;6.220;2023-07-24T10:51:11;2.85;;;1.85;;
50267;SDS011;36153;50.960;6.220;2023-07-24T10:54:20;3.55;;;2.13;;
50267;SDS011;36153;50.960;6.220;2023-07-24T10:57:30;5.10;;;2.30;;
50267;SDS011;36153;50.960;6.220;2023-07-24T11:03:31;4.43;;;2.23;;
50267;SDS011;36153;50.960;6.220;2023-07-24T11:06:32;6.85;;;3.35;;
50267;SDS011;36153;50.960;6.220;2023-07-24T11:09:34;9.75;;;3.22;;
50267;SDS011;36153;50.960;6.220;2023-07-24T11:12:40;8.75;;;3.90;;
50267;SDS011;36153;50.960;6.220;2023-07-24T11:15:40;5.10;;;3.10;;
50267;SDS011;36153;50.960;6.220;2023-07-24T11:18:47;5.25;;;2.65;;
50267;SDS011;36153;50.960;6.220;2023-07-24T11:21:51;5.32;;;2.47;;
50267;SDS011;36153;50.960;6.220;2023-07-24T11:24:52;6.68;;;2.55;;
50267;SDS011;36153;50.960;6.220;2023-07-24T11:27:52;5.13;;;2.70;;
50267;SDS011;36153;50.960;6.220;2023-07-24T11:30:52;3.45;;;1.27;;
50267;SDS011;36153;50.960;6.220;2023-07-24T11:33:53;2.28;;;0.63;;
50267;SDS011;36153;50.960;6.220;2023-07-24T11:36:54;1.13;;;0.70;;
50267;SDS011;36153;50.960;6.220;2023-07-24T11:39:58;0.95;;;0.55;;
50267;SDS011;36153;50.960;6.220;2023-07-24T11:43:14;0.95;;;0.75;;
50267;SDS011;36153;50.960;6.220;2023-07-24T11:46:26;1.35;;;0.40;;
50267;SDS011;36153;50.960;6.220;2023-07-24T11:49:28;1.05;;;0.52;;
50267;SDS011;36153;50.960;6.220;2023-07-24T11:52:42;1.55;;;0.85;;
50267;SDS011;36153;50.960;6.220;2023-07-24T11:55:47;0.68;;;0.22;;
50267;SDS011;36153;50.960;6.220;2023-07-24T11:58:48;1.00;;;0.73;;
50267;SDS011;36153;50.960;6.220;2023-07-24T12:01:48;1.00;;;0.45;;
50267;SDS011;36153;50.960;6.220;2023-07-24T12:04:53;0.95;;;0.40;;
50267;SDS011;36153;50.960;6.220;2023-07-24T12:07:56;1.20;;;0.35;;
50267;SDS011;36153;50.960;6.220;2023-07-24T12:10:56;0.75;;;0.40;;
50267;SDS011;36153;50.960;6.220;2023-07-24T12:13:57;0.70;;;0.50;;
50267;SDS011;36153;50.960;6.220;2023-07-24T12:17:01;0.60;;;0.30;;
50267;SDS011;36153;50.960;6.220;2023-07-24T12:20:03;0.88;;;0.30;;
50267;SDS011;36153;50.960;6.220;2023-07-24T12:23:05;1.40;;;0.45;;
50267;SDS011;36153;50.960;6.220;2023-07-24T12:26:06;0.60;;;0.20;;
50267;SDS011;36153;50.960;6.220;2023-07-24T12:29:07;0.65;;;0.60;;
50267;SDS011;36153;50.960;6.220;2023-07-24T12:32:07;1.65;;;0.28;;
50267;SDS011;36153;50.960;6.220;2023-07-24T12:35:08;0.70;;;0.40;;
50267;SDS011;36153;50.960;6.220;2023-07-24T12:38:09;0.73;;;0.40;;
50267;SDS011;36153;50.960;6.220;2023-07-24T12:41:10;1.00;;;0.50;;
50267;SDS011;36153;50.960;6.220;2023-07-24T12:44:10;1.08;;;0.63;;
50267;SDS011;36153;50.960;6.220;2023-07-24T12:47:11;1.13;;;0.70;;
50267;SDS011;36153;50.960;6.220;2023-07-24T12:50:12;1.00;;;0.60;;
50267;SDS011;36153;50.960;6.220;2023-07-24T12:53:12;1.65;;;0.63;;
50267;SDS011;36153;50.960;6.220;2023-07-24T12:56:12;1.90;;;0.90;;
50267;SDS011;36153;50.960;6.220;2023-07-24T12:59:13;0.80;;;0.50;;
50267;SDS011;36153;50.960;6.220;2023-07-24T13:02:13;0.93;;;0.55;;
50267;SDS011;36153;50.960;6.220;2023-07-24T13:05:13;1.10;;;0.50;;
50267;SDS011;36153;50.960;6.220;2023-07-24T13:08:14;0.70;;;0.30;;
50267;SDS011;36153;50.960;6.220;2023-07-24T13:11:14;1.23;;;0.50;;
50267;SDS011;36153;50.960;6.220;2023-07-24T13:14:14;1.00;;;0.40;;
50267;SDS011;36153;50.960;6.220;2023-07-24T13:17:15;1.35;;;0.45;;
50267;SDS011;36153;50.960;6.220;2023-07-24T13:20:16;0.85;;;0.60;;
50267;SDS011;36153;50.960;6.220;2023-07-24T13:23:16;1.13;;;0.57;;
50267;SDS011;36153;50.960;6.220;2023-07-24T13:26:17;1.48;;;0.70;;
50267;SDS011;36153;50.960;6.220;2023-07-24T13:29:17;1.55;;;0.80;;
50267;SDS011;36153;50.960;6.220;2023-07-24T13:32:17;1.58;;;1.00;;
50267;SDS011;36153;50.960;6.220;2023-07-24T13:35:18;2.08;;;1.08;;
50267;SDS011;36153;50.960;6.220;2023-07-24T13:38:18;1.73;;;0.80;;
50267;SDS011;36153;50.960;6.220;2023-07-24T13:41:19;1.50;;;0.82;;
50267;SDS011;36153;50.960;6.220;2023-07-24T13:44:19;1.80;;;0.80;;
50267;SDS011;36153;50.960;6.220;2023-07-24T13:47:20;1.45;;;1.00;;
50267;SDS011;36153;50.960;6.220;2023-07-24T13:50:21;1.20;;;0.90;;
50267;SDS011;36153;50.960;6.220;2023-07-24T13:53:21;2.63;;;0.90;;
50267;SDS011;36153;50.960;6.220;2023-07-24T13:56:22;0.80;;;0.52;;
50267;SDS011;36153;50.960;6.220;2023-07-24T13:59:23;1.10;;;0.60;;
50267;SDS011;36153;50.960;6.220;2023-07-24T14:02:24;1.40;;;0.90;;
50267;SDS011;36153;50.960;6.220;2023-07-24T14:05:24;1.40;;;0.80;;
50267;SDS011;36153;50.960;6.220;2023-07-24T14:08:24;1.20;;;0.77;;
50267;SDS011;36153;50.960;6.220;2023-07-24T14:11:25;1.42;;;0.88;;
50267;SDS011;36153;50.960;6.220;2023-07-24T14:14:26;3.08;;;0.60;;
50267;SDS011;36153;50.960;6.220;2023-07-24T14:17:31;1.65;;;0.90;;
50267;SDS011;36153;50.960;6.220;2023-07-24T14:20:32;1.25;;;0.80;;
50267;SDS011;36153;50.960;6.220;2023-07-24T14:23:32;1.73;;;0.73;;
50267;SDS011;36153;50.960;6.220;2023-07-24T14:26:33;1.42;;;1.20;;
50267;SDS011;36153;50.960;6.220;2023-07-24T14:29:33;2.60;;;1.10;;
50267;SDS011;36153;50.960;6.220;2023-07-24T14:32:34;3.50;;;1.20;;
50267;SDS011;36153;50.960;6.220;2023-07-24T14:35:34;1.17;;;0.82;;
50267;SDS011;36153;50.960;6.220;2023-07-24T14:38:35;1.73;;;1.23;;
50267;SDS011;36153;50.960;6.220;2023-07-24T14:41:35;0.70;;;0.50;;
50267;SDS011;36153;50.960;6.220;2023-07-24T14:44:35;1.27;;;1.00;;
50267;SDS011;36153;50.960;6.220;2023-07-24T14:47:36;1.15;;;0.60;;
50267;SDS011;36153;50.960;6.220;2023-07-24T14:50:36;2.35;;;0.40;;
50267;SDS011;36153;50.960;6.220;2023-07-24T14:53:37;1.08;;;0.77;;
50267;SDS011;36153;50.960;6.220;2023-07-24T14:56:37;0.80;;;0.63;;
50267;SDS011;36153;50.960;6.220;2023-07-24T14:59:37;1.90;;;0.90;;
50267;SDS011;36153;50.960;6.220;2023-07-24T15:02:38;2.50;;;1.08;;
50267;SDS011;36153;50.960;6.220;2023-07-24T15:05:38;1.75;;;1.20;;
50267;SDS011;36153;50.960;6.220;2023-07-24T15:08:38;2.28;;;1.20;;
50267;SDS011;36153;50.960;6.220;2023-07-24T15:11:39;1.77;;;1.30;;
50267;SDS011;36153;50.960;6.220;2023-07-24T15:14:39;2.00;;;1.23;;
50267;SDS011;36153;50.960;6.220;2023-07-24T15:17:39;1.50;;;1.30;;
50267;SDS011;36153;50.960;6.220;2023-07-24T15:20:40;2.17;;;1.27;;
50267;SDS011;36153;50.960;6.220;2023-07-24T15:23:40;1.67;;;1.20;;
50267;SDS011;36153;50.960;6.220;2023-07-24T15:26:41;2.28;;;1.60;;
50267;SDS011;36153;50.960;6.220;2023-07-24T15:29:41;2.83;;;1.90;;
50267;SDS011;36153;50.960;6.220;2023-07-24T15:32:41;2.92;;;1.55;;
50267;SDS011;36153;50.960;6.220;2023-07-24T15:35:42;1.90;;;1.50;;
50267;SDS011;36153;50.960;6.220;2023-07-24T15:38:42;2.53;;;1.30;;
50267;SDS011;36153;50.960;6.220;2023-07-24T15:41:42;2.35;;;1.60;;
50267;SDS011;36153;50.960;6.220;2023-07-24T15:44:43;3.03;;;1.60;;
50267;SDS011;36153;50.960;6.220;2023-07-24T15:47:43;2.40;;;1.83;;
50267;SDS011;36153;50.960;6.220;2023-07-24T15:50:43;2.20;;;1.65;;
50267;SDS011;36153;50.960;6.220;2023-07-24T15:53:44;3.05;;;1.50;;
50267;SDS011;36153;50.960;6.220;2023-07-24T15:56:45;2.70;;;1.63;;
50267;SDS011;36153;50.960;6.220;2023-07-24T15:59:46;3.85;;;1.75;;
50267;SDS011;36153;50.960;6.220;2023-07-24T16:02:46;2.03;;;1.50;;
50267;SDS011;36153;50.960;6.220;2023-07-24T16:05:46;3.42;;;2.10;;
50267;SDS011;36153;50.960;6.220;2023-07-24T16:08:47;4.53;;;1.90;;
50267;SDS011;36153;50.960;6.220;2023-07-24T16:11:48;5.05;;;2.53;;
50267;SDS011;36153;50.960;6.220;2023-07-24T16:14:48;4.75;;;2.47;;
50267;SDS011;36153;50.960;6.220;2023-07-24T16:17:49;3.78;;;2.30;;
50267;SDS011;36153;50.960;6.220;2023-07-24T16:20:50;4.13;;;2.67;;
50267;SDS011;36153;50.960;6.220;2023-07-24T16:23:50;2.97;;;2.30;;
50267;SDS011;36153;50.960;6.220;2023-07-24T16:26:51;2.90;;;1.95;;
50267;SDS011;36153;50.960;6.220;2023-07-24T16:29:51;5.55;;;2.78;;
50267;SDS011;36153;50.960;6.220;2023-07-24T16:32:51;2.97;;;2.28;;
50267;SDS011;36153;50.960;6.220;2023-07-24T16:35:51;1.33;;;1.23;;
50267;SDS011;36153;50.960;6.220;2023-07-24T16:38:52;1.60;;;1.00;;
50267;SDS011;36153;50.960;6.220;2023-07-24T16:41:52;1.25;;;0.90;;
50267;SDS011;36153;50.960;6.220;2023-07-24T16:44:53;4.60;;;1.30;;
50267;SDS011;36153;50.960;6.220;2023-07-24T16:47:53;1.73;;;0.90;;
50267;SDS011;36153;50.960;6.220;2023-07-24T16:50:53;4.40;;;1.20;;
50267;SDS011;36153;50.960;6.220;2023-07-24T16:53:54;4.18;;;1.90;;
50267;SDS011;36153;50.960;6.220;2023-07-24T16:56:54;3.20;;;1.48;;
50267;SDS011;36153;50.960;6.220;2023-07-24T16:59:56;4.93;;;1.48;;
50267;SDS011;36153;50.960;6.220;2023-07-24T17:02:57;2.92;;;1.48;;
50267;SDS011;36153;50.960;6.220;2023-07-24T17:05:57;2.70;;;1.25;;
50267;SDS011;36153;50.960;6.220;2023-07-24T17:08:58;2.60;;;1.50;;
50267;SDS011;36153;50.960;6.220;2023-07-24T17:11:58;2.95;;;1.92;;
50267;SDS011;36153;50.960;6.220;2023-07-24T17:14:59;2.65;;;1.27;;
50267;SDS011;36153;50.960;6.220;2023-07-24T17:17:59;3.53;;;1.52;;
50267;SDS011;36153;50.960;6.220;2023-07-24T17:21:00;3.72;;;1.73;;
50267;SDS011;36153;50.960;6.220;2023-07-24T17:24:00;2.10;;;1.50;;
50267;SDS011;36153;50.960;6.220;2023-07-24T17:27:00;3.83;;;1.80;;
50267;SDS011;36153;50.960;6.220;2023-07-24T17:30:01;2.63;;;1.77;;
50267;SDS011;36153;50.960;6.220;2023-07-24T17:33:09;3.83;;;2.08;;
50267;SDS011;36153;50.960;6.220;2023-07-24T17:36:10;3.05;;;1.73;;
50267;SDS011;36153;50.960;6.220;2023-07-24T17:39:17;2.38;;;1.38;;
50267;SDS011;36153;50.960;6.220;2023-07-24T17:42:23;3.17;;;1.90;;
50267;SDS011;36153;50.960;6.220;2023-07-24T17:45:25;3.30;;;1.58;;
50267;SDS011;36153;50.960;6.220;2023-07-24T17:48:28;2.72;;;2.45;;
50267;SDS011;36153;50.960;6.220;2023-07-24T17:51:29;5.57;;;2.30;;
50267;SDS011;36153;50.960;6.220;2023-07-24T17:54:30;3.90;;;2.03;;
50267;SDS011;36153;50.960;6.220;2023-07-24T17:57:32;3.50;;;2.60;;
50267;SDS011;36153;50.960;6.220;2023-07-24T18:00:33;5.28;;;2.65;;
50267;SDS011;36153;50.960;6.220;2023-07-24T18:03:34;5.95;;;2.05;;
50267;SDS011;36153;50.960;6.220;2023-07-24T18:06:34;3.78;;;2.28;;
50267;SDS011;36153;50.960;6.220;2023-07-24T18:09:35;3.85;;;2.85;;
50267;SDS011;36153;50.960;6.220;2023-07-24T18:12:35;3.47;;;2.10;;
50267;SDS011;36153;50.960;6.220;2023-07-24T18:15:36;2.95;;;2.10;;
50267;SDS011;36153;50.960;6.220;2023-07-24T18:18:36;3.55;;;2.08;;